KJ5RM Weather Reports


Display with metric or nautical units.
time (UTC)temp
F
wind
direction
speed
MPH
gust
MPH
rain 1hr
in
rain 24hr
in
rain mn
in
humidity
%
barometer
mb
20210922082034 61 0 5.0 7.0 0.00 0.05 0.00 54 1025.1
20210922081019 61 358 5.0 8.0 0.00 0.05 0.00 52 1025.0
20210922080018 61 2 5.0 8.0 0.00 0.05 0.00 53 1024.9
20210922075018 61 0 4.0 6.0 0.00 0.05 0.00 53 1024.9
20210922074018 61 354 4.0 6.0 0.00 0.05 0.00 53 1025.0
20210922073018 61 355 3.0 5.0 0.00 0.05 0.00 52 1025.0
20210922072020 62 358 4.0 6.0 0.00 0.05 0.00 52 1025.1
20210922071019 62 4 4.0 6.0 0.00 0.05 0.00 51 1025.1
20210922070019 62 5 3.0 5.0 0.00 0.05 0.00 52 1025.1
20210922065019 62 4 4.0 6.0 0.00 0.06 0.00 51 1025.0
20210922064020 62 13 3.0 5.0 0.00 0.06 0.00 50 1025.0
20210922063019 63 12 3.0 4.0 0.00 0.06 0.00 50 1025.0
20210922062020 63 6 2.0 4.0 0.00 0.06 0.00 49 1025.0
20210922061020 63 353 3.0 5.0 0.00 0.06 0.00 48 1025.0
20210922060017 64 354 2.0 3.0 0.00 0.06 0.00 48 1024.9
20210922055017 64 359 3.0 4.0 0.00 0.06 0.00 46 1024.8
20210922054018 65 5 2.0 3.0 0.00 0.06 0.00 46 1024.7
20210922053018 65 26 3.0 5.0 0.00 0.06 0.00 46 1024.7
20210922052018 65 26 4.0 5.0 0.00 0.06 0.00 46 1024.5
20210922051019 66 36 3.0 6.0 0.00 0.06 0.00 45 1024.5
20210922050018 66 41 5.0 9.0 0.00 0.06 0.00 44 1024.4
20210922045019 66 32 6.0 10.0 0.00 0.06 0.06 43 1024.3
20210922044018 67 27 6.0 8.0 0.00 0.06 0.06 43 1024.2
20210922043020 67 30 6.0 8.0 0.00 0.06 0.06 43 1024.2
20210922042019 67 31 5.0 10.0 0.00 0.06 0.06 43 1024.2
20210922041019 68 34 6.0 9.0 0.00 0.06 0.06 41 1024.2
20210922040017 69 33 6.0 10.0 0.00 0.06 0.06 40 1024.1
20210922035017 69 32 7.0 10.0 0.00 0.06 0.06 40 1024.0
20210922034019 69 32 8.0 11.0 0.00 0.06 0.06 39 1023.8
20210922033020 69 29 8.0 13.0 0.00 0.06 0.06 40 1023.8
20210922032017 68 24 6.0 9.0 0.00 0.06 0.06 43 1023.8
20210922031017 68 24 5.0 9.0 0.00 0.06 0.06 43 1023.7
20210922030018 69 20 5.0 10.0 0.00 0.06 0.06 42 1023.6
20210922025021 70 18 6.0 9.0 0.00 0.06 0.06 41 1023.5
20210922024018 70 17 7.0 10.0 0.00 0.06 0.06 40 1023.2
20210922023018 70 17 6.0 11.0 0.00 0.06 0.06 40 1023.0
20210922022018 71 23 6.0 9.0 0.00 0.06 0.06 40 1022.9
20210922021018 71 20 7.0 10.0 0.00 0.06 0.06 39 1022.6
20210922020018 72 26 6.0 10.0 0.00 0.06 0.06 39 1022.4
20210922015019 72 20 5.0 7.0 0.00 0.06 0.06 39 1022.2
20210922014020 73 18 5.0 7.0 0.00 0.06 0.06 38 1022.0
20210922013019 73 10 5.0 9.0 0.00 0.06 0.06 38 1021.9
20210922012019 73 9 5.0 7.0 0.00 0.06 0.06 38 1021.7
20210922011018 74 17 6.0 8.0 0.00 0.06 0.06 37 1021.6
20210922010017 75 22 6.0 9.0 0.00 0.06 0.06 37 1021.5
20210922005022 75 21 6.0 10.0 0.00 0.06 0.06 36 1021.3
20210922004020 76 20 7.0 9.0 0.00 0.06 0.06 36 1021.3
20210922003017 77 23 8.0 11.0 0.00 0.06 0.06 34 1021.1
20210922002018 78 29 9.0 15.0 0.00 0.06 0.06 33 1020.9
20210922001019 79 29 10.0 16.0 0.00 0.06 0.06 31 1020.8
20210922000018 80 22 13.0 19.0 0.00 0.06 0.06 31 1020.6
20210921235018 80 26 14.0 21.0 0.00 0.06 0.06 29 1020.6
20210921234018 80 27 13.0 23.0 0.00 0.06 0.06 30 1020.5
20210921233018 81 15 14.0 22.0 0.01 0.06 0.06 30 1020.3
20210921232019 81 23 15.0 20.0 0.01 0.06 0.06 30 1020.3
20210921231019 81 29 16.0 22.0 0.01 0.06 0.06 29 1020.2
20210921230020 82 15 13.0 22.0 0.01 0.05 0.05 31 1020.1
20210921225019 82 16 15.0 22.0 0.01 0.05 0.05 30 1019.9
20210921224019 82 31 17.0 22.0 0.02 0.05 0.05 31 1019.7
20210921223016 83 21 14.0 22.0 0.01 0.05 0.05 31 1019.7
20210921222016 83 13 16.0 24.0 0.02 0.05 0.05 31 1019.6
20210921221017 83 10 15.0 23.0 0.02 0.05 0.05 31 1019.5
20210921220020 83 21 18.0 24.0 0.02 0.04 0.04 31 1019.5
20210921215017 83 28 17.0 23.0 0.02 0.04 0.04 31 1019.4
20210921214018 83 36 17.0 26.0 0.02 0.04 0.04 31 1019.5
20210921213017 83 16 15.0 22.0 0.02 0.04 0.04 32 1019.4
20210921212019 83 24 17.0 26.0 0.02 0.03 0.03 32 1019.5
20210921211018 84 8 16.0 23.0 0.02 0.03 0.03 33 1019.5
20210921210019 83 24 15.0 24.0 0.01 0.02 0.02 33 1019.5
20210921205020 84 24 16.0 25.0 0.01 0.02 0.02 33 1019.4
20210921204019 84 21 13.0 21.0 0.01 0.02 0.02 33 1019.4
20210921203019 84 21 17.0 26.0 0.01 0.02 0.02 34 1019.4
20210921202019 84 15 16.0 22.0 0.01 0.02 0.02 35 1019.5
20210921201019 83 24 19.0 28.0 0.01 0.01 0.01 35 1019.5
20210921200019 83 24 15.0 23.0 0.01 0.01 0.01 36 1019.5
20210921195020 83 16 15.0 20.0 0.01 0.01 0.01 36 1019.6
20210921194017 84 23 15.0 26.0 0.00 0.01 0.01 36 1019.5
20210921193017 84 24 16.0 24.0 0.00 0.01 0.01 35 1019.7
20210921192017 84 16 16.0 23.0 0.00 0.01 0.01 36 1019.7
20210921191020 84 9 15.0 22.0 0.00 0.01 0.01 37 1019.8
20210921190017 83 26 15.0 22.0 0.00 0.01 0.01 37 1019.8
20210921185019 83 28 13.0 23.0 0.00 0.02 0.01 37 1019.9
20210921184018 83 16 17.0 25.0 0.00 0.02 0.01 36 1019.8
20210921183018 82 23 15.0 26.0 0.00 0.02 0.01 38 1019.8
20210921182018 81 38 12.0 17.0 0.00 0.02 0.01 38 1020.0
20210921181019 81 25 17.0 26.0 0.00 0.02 0.01 39 1019.9
20210921180019 81 12 17.0 22.0 0.00 0.02 0.01 41 1019.9
20210921175019 81 39 13.0 21.0 0.00 0.02 0.01 41 1020.0
20210921174019 80 32 14.0 22.0 0.00 0.02 0.01 43 1020.0
20210921173020 79 24 13.0 19.0 0.00 0.02 0.01 46 1020.1
20210921172020 79 17 17.0 25.0 0.00 0.02 0.01 47 1020.0
20210921171020 78 25 14.0 22.0 0.00 0.02 0.01 49 1020.0
20210921170017 78 23 14.0 21.0 0.00 0.02 0.01 50 1020.1
20210921165018 78 27 13.0 19.0 0.00 0.02 0.01 50 1020.0
20210921164019 78 32 11.0 19.0 0.00 0.02 0.01 52 1020.0
20210921163022 77 16 14.0 22.0 0.00 0.02 0.01 53 1019.9
20210921162017 77 22 13.0 20.0 0.00 0.02 0.01 53 1019.8
20210921161018 76 19 14.0 20.0 0.00 0.02 0.01 56 1019.7
20210921160019 75 30 14.0 25.0 0.00 0.02 0.01 57 1019.7
20210921155018 75 27 14.0 21.0 0.00 0.02 0.01 58 1019.7
20210921154020 75 35 12.0 19.0 0.00 0.02 0.01 58 1019.6
20210921153018 74 40 13.0 17.0 0.00 0.02 0.01 58 1019.6
20210921152019 74 50 9.0 15.0 0.00 0.02 0.01 59 1019.6
20210921151019 73 38 10.0 16.0 0.00 0.02 0.01 59 1019.5
20210921150020 73 43 10.0 15.0 0.00 0.02 0.01 60 1019.5
20210921145016 72 45 10.0 15.0 0.00 0.02 0.01 60 1019.3
20210921144017 72 42 11.0 17.0 0.00 0.02 0.01 60 1018.9
20210921143020 72 46 13.0 18.0 0.00 0.02 0.01 60 1018.8
20210921142016 72 40 9.0 15.0 0.00 0.02 0.01 60 1018.6
20210921141017 72 44 11.0 17.0 0.00 0.02 0.01 60 1018.4
20210921140018 73 35 14.0 25.0 0.00 0.02 0.01 59 1018.0
20210921135018 73 42 11.0 16.0 0.00 0.02 0.01 59 1017.9
20210921134018 72 41 13.0 20.0 0.00 0.02 0.01 59 1017.7
20210921133018 72 46 12.0 20.0 0.00 0.02 0.01 60 1017.6
20210921132018 72 38 13.0 19.0 0.00 0.02 0.01 60 1017.3
20210921131018 72 44 11.0 20.0 0.00 0.02 0.01 59 1017.0
20210921130018 73 47 10.0 15.0 0.00 0.02 0.01 59 1016.8
20210921125019 73 47 11.0 20.0 0.00 0.02 0.01 59 1016.4
20210921124019 73 43 12.0 20.0 0.00 0.02 0.01 59 1016.1
20210921123019 74 42 8.0 12.0 0.00 0.02 0.01 61 1015.9
20210921122020 74 38 9.0 15.0 0.00 0.02 0.01 62 1015.5
20210921121019 75 38 8.0 13.0 0.00 0.02 0.01 63 1015.4
20210921120020 75 48 10.0 17.0 0.00 0.02 0.01 65 1015.1
20210921115020 75 34 9.0 14.0 0.00 0.02 0.01 67 1015.0
20210921114017 75 31 10.0 16.0 0.00 0.02 0.01 69 1014.7
20210921113018 76 27 10.0 16.0 0.00 0.02 0.01 71 1014.4
20210921112021 76 21 7.0 13.0 0.00 0.02 0.01 74 1014.1
20210921111020 76 101 1.0 2.0 0.00 0.02 0.01 73 1013.7
20210921110017 76 0.0 0.0 0.00 0.02 0.01 73 1013.5
20210921105018 76 52 0.0 1.0 0.00 0.02 0.01 72 1013.3
20210921104018 76 117 1.0 3.0 0.00 0.02 0.01 72 1013.1
20210921103018 77 82 1.0 1.0 0.00 0.02 0.01 71 1013.1
20210921102019 77 34 1.0 2.0 0.00 0.02 0.01 70 1013.0
20210921101018 78 125 0.0 1.0 0.00 0.02 0.01 69 1012.8
20210921100019 79 0.0 0.0 0.00 0.02 0.01 67 1012.7
20210921095019 79 298 0.0 1.0 0.00 0.02 0.01 66 1012.5
20210921094019 80 279 2.0 3.0 0.00 0.02 0.01 65 1012.4
20210921093016 80 271 3.0 5.0 0.00 0.02 0.01 64 1012.3
20210921092020 81 272 4.0 5.0 0.00 0.02 0.01 63 1012.2
20210921091019 82 249 4.0 8.0 0.00 0.02 0.01 62 1012.0
20210921090017 82 217 4.0 7.0 0.00 0.02 0.01 61 1011.8
20210921085017 82 213 4.0 8.0 0.00 0.02 0.01 61 1011.7
20210921084017 82 207 5.0 11.0 0.00 0.02 0.01 61 1011.6
20210921083021 82 205 4.0 8.0 0.00 0.02 0.01 60 1011.6